createdAt,value
2023-03-01T00:01:22.871Z,4.00
2023-03-01T00:03:24.576Z,7.50
2023-03-01T00:05:26.371Z,7.00
2023-03-01T00:07:27.987Z,4.00
2023-03-01T00:09:29.561Z,4.00
2023-03-01T00:11:33.001Z,5.00
2023-03-01T00:13:35.650Z,2.00
2023-03-01T00:15:40.153Z,5.00
2023-03-01T00:17:43.340Z,1.25
2023-03-01T00:19:45.351Z,3.25
2023-03-01T00:21:47.477Z,4.00
2023-03-01T00:23:50.290Z,5.50
2023-03-01T00:25:52.252Z,6.50
2023-03-01T00:27:53.827Z,3.25
2023-03-01T00:29:55.622Z,7.00
2023-03-01T00:31:57.543Z,3.50
2023-03-01T00:34:02.904Z,3.00
2023-03-01T00:36:05.474Z,4.25
2023-03-01T00:38:07.472Z,3.50
2023-03-01T00:40:10.513Z,2.50
2023-03-01T00:42:12.336Z,2.00
2023-03-01T00:44:14.269Z,4.25
2023-03-01T00:46:18.105Z,3.00
2023-03-01T00:48:19.709Z,6.75
2023-03-01T00:50:22.759Z,0.00
2023-03-01T00:52:24.522Z,3.50
2023-03-01T00:54:26.149Z,4.00
2023-03-01T00:56:28.824Z,4.25
2023-03-01T00:58:30.781Z,8.50
2023-03-01T01:00:32.542Z,6.00
2023-03-01T01:02:35.124Z,4.00
2023-03-01T01:04:37.288Z,4.00
2023-03-01T01:06:43.784Z,5.00
2023-03-01T01:08:45.647Z,5.00
2023-03-01T01:10:48.021Z,4.00
2023-03-01T01:12:49.835Z,7.00
2023-03-01T01:14:52.015Z,3.50
2023-03-01T01:16:53.619Z,5.00
2023-03-01T01:18:56.074Z,5.50
2023-03-01T01:20:57.670Z,3.00
2023-03-01T01:23:00.561Z,1.75
2023-03-01T01:25:02.124Z,4.00
2023-03-01T01:27:03.988Z,2.00
2023-03-01T01:29:06.557Z,6.50
2023-03-01T01:31:08.802Z,5.25
2023-03-01T01:33:10.613Z,4.50
2023-03-01T01:35:12.261Z,0.00
2023-03-01T01:37:14.132Z,2.00
2023-03-01T01:39:17.760Z,4.50
2023-03-01T01:41:19.992Z,2.00
2023-03-01T01:43:24.496Z,5.00
2023-03-01T01:45:30.793Z,0.00
2023-03-01T01:47:32.833Z,4.50
2023-03-01T01:49:39.261Z,3.00
2023-03-01T01:51:45.224Z,4.00
2023-03-01T01:53:51.562Z,4.00
2023-03-01T01:55:59.750Z,5.00
2023-03-01T01:58:06.245Z,8.00
2023-03-01T02:00:13.442Z,4.00
2023-03-01T02:02:15.690Z,0.50
2023-03-01T02:04:17.495Z,2.00
2023-03-01T02:06:27.711Z,5.00
2023-03-01T02:08:33.111Z,7.00
2023-03-01T02:10:35.819Z,5.00
2023-03-01T02:12:39.669Z,4.00
2023-03-01T02:14:41.527Z,4.50
2023-03-01T02:16:43.510Z,7.50
2023-03-01T02:18:46.337Z,1.50
2023-03-01T02:21:02.756Z,4.00
2023-03-01T02:23:04.595Z,2.00
2023-03-01T02:25:16.595Z,4.00
2023-03-01T02:27:21.126Z,5.00
2023-03-01T02:29:25.358Z,2.00
2023-03-01T02:31:27.057Z,4.75
2023-03-01T02:33:29.563Z,4.00
2023-03-01T02:35:35.326Z,5.50
2023-03-01T02:37:37.351Z,4.75
2023-03-01T02:39:43.697Z,7.00
2023-03-01T02:41:49.508Z,4.00
2023-03-01T02:43:51.505Z,5.00
2023-03-01T02:45:59.851Z,4.75
2023-03-01T02:48:01.643Z,4.00
2023-03-01T02:50:03.600Z,7.00
2023-03-01T02:52:29.390Z,5.50
2023-03-01T02:54:37.955Z,4.00
2023-03-01T02:56:39.931Z,6.00
2023-03-01T02:58:43.519Z,4.25
2023-03-01T03:00:45.483Z,5.75
2023-03-01T03:02:50.571Z,3.00
2023-03-01T03:04:52.883Z,3.00
2023-03-01T03:06:54.744Z,3.00
2023-03-01T03:08:56.240Z,5.25
2023-03-01T03:10:58.070Z,3.00
2023-03-01T03:13:02.488Z,4.00
2023-03-01T03:15:05.704Z,5.50
2023-03-01T03:17:07.525Z,4.00
2023-03-01T03:19:11.302Z,2.00
2023-03-01T03:21:13.800Z,4.50
2023-03-01T03:23:15.296Z,2.00
2023-03-01T03:25:17.838Z,2.00
2023-03-01T03:27:19.365Z,6.00
2023-03-01T03:29:21.191Z,4.00
2023-03-01T03:31:23.121Z,5.00
2023-03-01T03:33:25.120Z,5.00
2023-03-01T03:35:31.036Z,5.50
2023-03-01T03:37:32.737Z,4.00
2023-03-01T03:39:34.602Z,4.50
2023-03-01T03:41:36.266Z,2.00
2023-03-01T03:43:40.713Z,2.25
2023-03-01T03:45:44.701Z,2.00
2023-03-01T03:47:46.256Z,1.50
2023-03-01T03:49:47.774Z,3.75
2023-03-01T03:51:50.834Z,4.50
2023-03-01T03:53:52.404Z,7.00
2023-03-01T03:55:54.322Z,4.75
2023-03-01T03:57:58.587Z,4.50
2023-03-01T04:00:00.410Z,2.00
2023-03-01T04:02:01.950Z,4.25
2023-03-01T04:04:03.740Z,5.50
2023-03-01T04:06:05.788Z,2.50
2023-03-01T04:08:09.719Z,2.00
2023-03-01T04:10:14.022Z,4.75
2023-03-01T04:12:15.790Z,4.75
2023-03-01T04:14:17.579Z,4.25
2023-03-01T04:16:19.782Z,4.00
2023-03-01T04:18:25.293Z,4.00
2023-03-01T04:20:29.618Z,9.50
2023-03-01T04:22:31.462Z,4.75
2023-03-01T04:24:34.692Z,5.00
2023-03-01T04:26:36.196Z,4.00
2023-03-01T04:28:40.418Z,4.75
2023-03-01T04:30:42.050Z,1.75
2023-03-01T04:32:43.867Z,2.00
2023-03-01T04:34:45.822Z,9.00
2023-03-01T04:36:47.466Z,1.00
2023-03-01T04:38:49.430Z,4.50
2023-03-01T04:40:52.414Z,5.00
2023-03-01T04:42:53.956Z,4.75
2023-03-01T04:44:55.465Z,2.00
2023-03-01T04:46:56.996Z,3.00
2023-03-01T04:48:58.926Z,8.50
2023-03-01T04:51:01.212Z,5.00
2023-03-01T04:53:03.340Z,2.00
2023-03-01T04:55:06.753Z,3.00
2023-03-01T04:57:09.799Z,5.00
2023-03-01T04:59:11.838Z,1.75
2023-03-01T05:01:16.118Z,4.25
2023-03-01T05:03:17.786Z,4.00
2023-03-01T05:05:19.740Z,4.00
2023-03-01T05:07:21.303Z,5.50
2023-03-01T05:09:22.905Z,4.75
2023-03-01T05:11:24.666Z,9.50
2023-03-01T05:13:27.898Z,5.00
2023-03-01T05:15:32.273Z,7.75
2023-03-01T05:17:34.973Z,6.75
2023-03-01T05:19:36.540Z,9.00
2023-03-01T05:21:38.891Z,8.50
2023-03-01T05:23:40.732Z,7.25
2023-03-01T05:25:42.358Z,10.00
2023-03-01T05:27:44.307Z,7.50
2023-03-01T05:29:48.681Z,5.00
2023-03-01T05:31:50.528Z,7.75
2023-03-01T05:33:52.225Z,6.25
2023-03-01T05:35:53.947Z,4.75
2023-03-01T05:37:56.962Z,4.00
2023-03-01T05:39:59.944Z,2.00
2023-03-01T05:42:03.086Z,4.50
2023-03-01T05:44:07.349Z,4.75
2023-03-01T05:46:10.520Z,8.00
2023-03-01T05:48:13.785Z,4.00
2023-03-01T05:50:16.979Z,10.25
2023-03-01T05:52:18.504Z,8.00
2023-03-01T05:54:21.812Z,6.00
2023-03-01T05:56:23.396Z,10.50
2023-03-01T05:58:25.419Z,3.75
2023-03-01T06:00:27.520Z,7.00
2023-03-01T06:02:30.802Z,6.00
2023-03-01T06:04:32.571Z,5.00
2023-03-01T06:06:35.528Z,7.00
2023-03-01T06:08:37.373Z,5.00
2023-03-01T06:10:39.260Z,5.50
2023-03-01T06:12:42.774Z,7.75
2023-03-01T06:14:46.145Z,7.00
2023-03-01T06:16:47.708Z,7.00
2023-03-01T06:18:50.780Z,6.50
2023-03-01T06:20:56.522Z,4.00
2023-03-01T06:22:58.387Z,4.00
2023-03-01T06:24:59.981Z,8.25
2023-03-01T06:27:01.611Z,1.50
2023-03-01T06:29:03.476Z,5.00
2023-03-01T06:31:06.023Z,6.00
2023-03-01T06:33:07.940Z,9.50
2023-03-01T06:35:12.462Z,4.00
2023-03-01T06:37:14.268Z,10.00
2023-03-01T06:39:16.074Z,3.00
2023-03-01T06:41:17.664Z,24.50
2023-03-01T06:43:19.297Z,1.00
2023-03-01T06:45:21.902Z,5.25
2023-03-01T06:47:23.404Z,5.00
2023-03-01T06:49:24.996Z,6.75
2023-03-01T06:51:28.140Z,6.00
2023-03-01T06:53:30.707Z,6.50
2023-03-01T06:55:33.102Z,7.25
2023-03-01T06:57:34.684Z,4.50
2023-03-01T06:59:36.556Z,7.50
2023-03-01T07:01:38.194Z,8.00
2023-03-01T07:03:39.795Z,7.00
2023-03-01T07:05:41.800Z,10.75
2023-03-01T07:07:45.346Z,6.50
2023-03-01T07:09:46.866Z,7.00
2023-03-01T07:11:48.468Z,9.50
2023-03-01T07:13:50.481Z,7.00
2023-03-01T07:15:52.890Z,10.75
2023-03-01T07:17:54.491Z,6.00
2023-03-01T07:19:55.953Z,5.50
2023-03-01T07:21:57.874Z,7.50
2023-03-01T07:24:00.817Z,11.50
2023-03-01T07:26:02.681Z,8.25
2023-03-01T07:28:04.852Z,6.75
2023-03-01T07:30:07.777Z,8.50
2023-03-01T07:32:11.741Z,8.00
2023-03-01T07:34:13.442Z,8.25
2023-03-01T07:36:15.338Z,5.75
2023-03-01T07:38:17.143Z,8.25
2023-03-01T07:40:20.911Z,13.00
2023-03-01T07:42:22.567Z,10.00
2023-03-01T07:44:24.271Z,9.67
2023-03-01T07:46:26.149Z,4.00
2023-03-01T07:48:28.127Z,9.00
2023-03-01T07:50:30.369Z,8.00
2023-03-01T07:52:32.144Z,10.33
2023-03-01T07:54:34.067Z,7.33
2023-03-01T07:56:37.020Z,12.00
2023-03-01T07:58:40.080Z,9.00
2023-03-01T08:00:41.712Z,13.33
2023-03-01T08:02:43.534Z,9.67
2023-03-01T08:04:45.352Z,8.33
2023-03-01T08:06:46.975Z,11.33
2023-03-01T08:08:49.011Z,6.00
2023-03-01T08:10:50.618Z,13.67
2023-03-01T08:12:54.107Z,14.00
2023-03-01T08:14:56.131Z,9.67
2023-03-01T08:16:57.708Z,16.33
2023-03-01T08:19:03.943Z,13.67
2023-03-01T08:21:07.072Z,11.00
2023-03-01T08:23:08.912Z,13.00
2023-03-01T08:25:10.807Z,18.33
2023-03-01T08:27:12.404Z,17.00
2023-03-01T08:29:15.546Z,11.33
2023-03-01T08:31:19.530Z,12.67
2023-03-01T08:33:21.180Z,8.67
2023-03-01T08:35:23.177Z,14.67
2023-03-01T08:37:24.806Z,13.67
2023-03-01T08:39:26.463Z,13.33
2023-03-01T08:41:28.771Z,14.67
2023-03-01T08:43:30.810Z,14.00
2023-03-01T08:45:33.832Z,18.00
2023-03-01T08:47:35.475Z,19.00
2023-03-01T08:49:37.475Z,20.67
2023-03-01T08:51:39.087Z,17.67
2023-03-01T08:53:41.392Z,27.00
2023-03-01T08:55:43.201Z,16.00
2023-03-01T08:57:45.079Z,18.67
2023-03-01T08:59:46.587Z,19.00
2023-03-01T09:01:49.791Z,19.33
2023-03-01T09:03:51.723Z,24.00
2023-03-01T09:05:53.592Z,17.67
2023-03-01T09:07:55.283Z,23.67
2023-03-01T09:09:56.908Z,24.33
2023-03-01T09:11:58.760Z,15.67
2023-03-01T09:14:00.293Z,16.00
2023-03-01T09:16:04.048Z,18.00
2023-03-01T09:18:07.115Z,15.33
2023-03-01T09:20:10.002Z,17.67
2023-03-01T09:22:11.651Z,17.33
2023-03-01T09:24:15.350Z,22.33
2023-03-01T09:26:18.911Z,18.00
2023-03-01T09:28:29.468Z,18.67
2023-03-01T09:30:31.808Z,14.00
2023-03-01T09:32:33.376Z,20.00
2023-03-01T09:34:36.611Z,18.00
2023-03-01T09:36:38.371Z,18.67
2023-03-01T09:38:40.197Z,13.00
2023-03-01T09:40:44.368Z,15.33
2023-03-01T09:42:55.389Z,19.33
2023-03-01T09:45:01.001Z,22.00
2023-03-01T09:47:03.838Z,20.75
2023-03-01T09:49:12.610Z,17.67
2023-03-01T09:51:20.867Z,11.50
2023-03-01T09:53:26.562Z,15.75
2023-03-01T09:55:32.520Z,22.50
2023-03-01T09:57:40.012Z,14.25
2023-03-01T09:59:56.493Z,19.50
2023-03-01T10:02:05.171Z,19.75
2023-03-01T10:04:23.680Z,17.75
2023-03-01T10:06:34.841Z,20.50
2023-03-01T10:08:41.806Z,19.50
2023-03-01T10:10:47.204Z,19.50
2023-03-01T10:12:49.235Z,16.75
2023-03-01T10:14:59.374Z,19.00
2023-03-01T10:17:04.384Z,25.25
2023-03-01T10:19:11.666Z,17.00
2023-03-01T10:21:18.234Z,21.00
2023-03-01T10:23:21.435Z,21.50
2023-03-01T10:25:43.570Z,20.25
2023-03-01T10:27:52.641Z,19.75
2023-03-01T10:30:04.364Z,25.25
2023-03-01T10:32:06.490Z,20.75
2023-03-01T10:34:14.547Z,20.50
2023-03-01T10:36:16.217Z,16.50
2023-03-01T10:38:19.305Z,16.50
2023-03-01T10:40:22.200Z,27.50
2023-03-01T10:42:28.504Z,29.25
2023-03-01T10:44:42.391Z,27.00
2023-03-01T10:46:44.315Z,20.75
2023-03-01T10:48:46.055Z,18.00
2023-03-01T10:50:50.369Z,13.50
2023-03-01T10:52:59.613Z,20.00
2023-03-01T10:55:04.983Z,15.25
2023-03-01T10:57:31.490Z,18.00
2023-03-01T10:59:35.284Z,15.75
2023-03-01T11:01:37.046Z,14.25
2023-03-01T11:03:39.987Z,15.25
2023-03-01T11:06:04.592Z,15.75
2023-03-01T11:08:06.662Z,25.00
2023-03-01T11:10:13.074Z,10.25
2023-03-01T11:12:17.820Z,20.75
2023-03-01T11:14:27.235Z,15.00
2023-03-01T11:16:33.846Z,16.25
2023-03-01T11:18:47.020Z,10.75
2023-03-01T11:20:52.703Z,14.25
2023-03-01T11:22:56.052Z,18.25
2023-03-01T11:25:09.350Z,18.00
2023-03-01T11:27:19.665Z,15.50
2023-03-01T11:29:37.236Z,15.25
2023-03-01T11:31:56.801Z,14.50
2023-03-01T11:34:04.013Z,15.25
2023-03-01T11:36:12.616Z,18.50
2023-03-01T11:38:21.184Z,17.75
2023-03-01T11:40:26.009Z,16.00
2023-03-01T11:42:42.269Z,15.00
2023-03-01T11:44:46.011Z,13.75
2023-03-01T11:47:08.598Z,14.50
2023-03-01T11:49:38.679Z,19.50
2023-03-01T11:51:52.229Z,18.25
2023-03-01T11:54:10.816Z,17.00
2023-03-01T11:56:24.135Z,15.00
2023-03-01T11:58:40.758Z,19.50
2023-03-01T12:00:59.592Z,16.25
2023-03-01T12:03:25.900Z,23.75
2023-03-01T12:06:06.170Z,15.25
2023-03-01T12:08:15.910Z,20.00
2023-03-01T12:10:28.318Z,19.50
2023-03-01T12:12:46.057Z,18.25
2023-03-01T12:15:02.799Z,19.50
2023-03-01T12:17:41.005Z,15.00
2023-03-01T12:19:58.244Z,20.50
2023-03-01T12:22:14.862Z,26.00
2023-03-01T12:24:31.287Z,15.50
2023-03-01T12:26:36.244Z,16.25
2023-03-01T12:28:53.343Z,17.00
2023-03-01T12:31:17.745Z,13.00
2023-03-01T12:33:27.460Z,17.00
2023-03-01T12:35:43.820Z,15.00
2023-03-01T12:37:57.698Z,17.00
2023-03-01T12:40:17.531Z,19.00
2023-03-01T12:42:31.948Z,17.00
2023-03-01T12:44:51.033Z,20.25
2023-03-01T12:47:08.311Z,20.50
2023-03-01T12:49:15.286Z,20.00
2023-03-01T12:51:21.856Z,19.25
2023-03-01T12:53:26.241Z,17.00
2023-03-01T12:55:32.674Z,22.75
2023-03-01T12:57:42.486Z,19.00
2023-03-01T12:59:52.526Z,19.75
2023-03-01T13:02:04.712Z,19.75
2023-03-01T13:04:21.729Z,23.50
2023-03-01T13:06:42.537Z,21.00
2023-03-01T13:08:56.809Z,20.50
2023-03-01T13:11:03.090Z,22.50
2023-03-01T13:13:15.238Z,24.25
2023-03-01T13:15:28.579Z,26.75
2023-03-01T13:17:41.038Z,24.75
2023-03-01T13:19:57.483Z,26.75
2023-03-01T13:22:00.952Z,30.75
2023-03-01T13:24:02.607Z,18.75
2023-03-01T13:26:08.434Z,18.75
2023-03-01T13:28:40.109Z,22.00
2023-03-01T13:30:42.992Z,28.75
2023-03-01T13:32:46.179Z,29.25
2023-03-01T13:34:52.640Z,28.25
2023-03-01T13:37:11.095Z,24.75
2023-03-01T13:39:29.620Z,22.75
2023-03-01T13:41:51.683Z,29.00
2023-03-01T13:43:53.468Z,30.75
2023-03-01T13:45:56.007Z,25.25
2023-03-01T13:48:03.255Z,26.75
2023-03-01T13:50:06.065Z,24.25
2023-03-01T13:52:14.498Z,29.25
2023-03-01T13:54:27.595Z,24.25
2023-03-01T13:56:37.379Z,28.00
2023-03-01T13:58:48.850Z,26.00
2023-03-01T14:00:58.389Z,22.50
2023-03-01T14:03:13.197Z,24.25
2023-03-01T14:05:14.879Z,30.25
2023-03-01T14:07:22.038Z,29.25
2023-03-01T14:09:28.168Z,28.25
2023-03-01T14:12:00.522Z,31.50
2023-03-01T14:14:17.304Z,25.00
2023-03-01T14:16:30.900Z,24.25
2023-03-01T14:18:47.465Z,26.00
2023-03-01T14:20:49.420Z,26.25
2023-03-01T14:22:54.825Z,25.50
2023-03-01T14:24:59.364Z,23.75
2023-03-01T14:27:02.711Z,25.00
2023-03-01T14:29:04.247Z,30.25
2023-03-01T14:31:36.229Z,32.00
2023-03-01T14:33:41.752Z,25.25
2023-03-01T14:35:43.303Z,34.75
2023-03-01T14:37:45.309Z,28.50
2023-03-01T14:39:47.068Z,28.00
2023-03-01T14:41:48.777Z,29.25
2023-03-01T14:43:54.819Z,26.25
2023-03-01T14:45:56.910Z,28.75
2023-03-01T14:48:03.420Z,24.25
2023-03-01T14:50:11.066Z,30.25
2023-03-01T14:52:22.157Z,27.00
2023-03-01T14:54:28.146Z,26.75
2023-03-01T14:56:45.404Z,28.00
2023-03-01T14:58:48.233Z,25.75
2023-03-01T15:00:53.428Z,25.75
2023-03-01T15:02:57.109Z,29.00
2023-03-01T15:05:02.265Z,27.00
2023-03-01T15:07:05.643Z,31.00
2023-03-01T15:09:07.960Z,29.25
2023-03-01T15:11:21.729Z,25.50
2023-03-01T15:13:25.386Z,28.25
2023-03-01T15:15:36.991Z,37.50
2023-03-01T15:17:40.196Z,25.50
2023-03-01T15:19:41.990Z,28.75
2023-03-01T15:21:47.878Z,30.50
2023-03-01T15:23:54.517Z,24.00
2023-03-01T15:25:57.614Z,26.25
2023-03-01T15:28:01.968Z,23.25
2023-03-01T15:30:05.177Z,23.50
2023-03-01T15:32:25.045Z,20.75
2023-03-01T15:34:28.977Z,30.50
2023-03-01T15:36:34.698Z,23.50
2023-03-01T15:38:51.600Z,24.75
2023-03-01T15:40:55.292Z,23.50
2023-03-01T15:42:56.834Z,28.75
2023-03-01T15:45:09.096Z,32.75
2023-03-01T15:47:26.012Z,28.50
2023-03-01T15:49:41.658Z,30.25
2023-03-01T15:51:56.268Z,30.25
2023-03-01T15:54:01.615Z,30.00
2023-03-01T15:56:05.434Z,24.50
2023-03-01T15:58:13.239Z,25.75
2023-03-01T16:00:17.742Z,28.50
2023-03-01T16:02:19.264Z,23.00
2023-03-01T16:04:21.263Z,26.50
2023-03-01T16:06:23.326Z,27.00
2023-03-01T16:08:25.168Z,33.00
2023-03-01T16:10:27.330Z,28.00
2023-03-01T16:12:30.628Z,26.25
2023-03-01T16:14:32.293Z,29.50
2023-03-01T16:16:34.222Z,23.50
2023-03-01T16:18:36.337Z,23.25
2023-03-01T16:20:38.661Z,27.50
2023-03-01T16:22:40.236Z,28.25
2023-03-01T16:24:41.794Z,25.75
2023-03-01T16:26:43.571Z,26.00
2023-03-01T16:28:46.913Z,25.00
2023-03-01T16:30:48.712Z,23.00
2023-03-01T16:32:51.332Z,28.00
2023-03-01T16:34:53.322Z,27.50
2023-03-01T16:36:55.121Z,21.75
2023-03-01T16:38:59.508Z,23.67
2023-03-01T16:41:01.843Z,28.67
2023-03-01T16:43:04.041Z,34.67
2023-03-01T16:45:18.375Z,30.00
2023-03-01T16:47:24.832Z,32.33
2023-03-01T16:49:26.858Z,31.67
2023-03-01T16:51:28.442Z,35.67
2023-03-01T16:53:30.501Z,30.00
2023-03-01T16:55:32.153Z,32.00
2023-03-01T16:57:35.024Z,25.00
2023-03-01T16:59:36.930Z,24.67
2023-03-01T17:01:39.971Z,37.33
2023-03-01T17:03:41.664Z,30.67
2023-03-01T17:05:43.282Z,34.67
2023-03-01T17:07:45.685Z,27.00
2023-03-01T17:09:47.533Z,33.33
2023-03-01T17:11:49.231Z,19.00
2023-03-01T17:13:50.879Z,28.33
2023-03-01T17:15:53.059Z,23.33
2023-03-01T17:17:56.193Z,30.67
2023-03-01T17:19:58.443Z,30.00
2023-03-01T17:22:00.320Z,35.67
2023-03-01T17:24:02.098Z,33.67
2023-03-01T17:26:04.914Z,33.33
2023-03-01T17:28:06.499Z,30.33
2023-03-01T17:30:10.844Z,25.33
2023-03-01T17:32:13.360Z,30.00
2023-03-01T17:34:16.518Z,33.33
2023-03-01T17:36:18.689Z,32.67
2023-03-01T17:38:20.325Z,26.67
2023-03-01T17:40:22.170Z,25.00
2023-03-01T17:42:23.845Z,23.67
2023-03-01T17:44:25.843Z,45.00
2023-03-01T17:46:27.734Z,35.67
2023-03-01T17:48:29.404Z,30.00
2023-03-01T17:50:32.589Z,35.33
2023-03-01T17:52:34.214Z,33.00
2023-03-01T17:54:35.995Z,34.67
2023-03-01T17:56:37.588Z,32.67
2023-03-01T17:58:39.590Z,24.00
2023-03-01T18:00:41.607Z,30.67
2023-03-01T18:02:44.257Z,33.67
2023-03-01T18:04:48.538Z,30.67
2023-03-01T18:06:51.551Z,24.67
2023-03-01T18:08:53.578Z,29.00
2023-03-01T18:10:58.848Z,24.00
2023-03-01T18:13:00.464Z,22.67
2023-03-01T18:15:02.343Z,36.00
2023-03-01T18:17:04.080Z,27.33
2023-03-01T18:19:06.455Z,18.67
2023-03-01T18:21:08.408Z,25.67
2023-03-01T18:23:11.830Z,34.00
2023-03-01T18:25:13.469Z,34.00
2023-03-01T18:27:15.011Z,29.00
2023-03-01T18:29:16.656Z,24.00
2023-03-01T18:31:20.086Z,26.67
2023-03-01T18:33:21.740Z,42.67
2023-03-01T18:35:23.697Z,20.33
2023-03-01T18:37:25.595Z,26.00
2023-03-01T18:39:29.052Z,18.00
2023-03-01T18:41:31.292Z,10.67
2023-03-01T18:43:33.189Z,15.67
2023-03-01T18:45:34.999Z,25.00
2023-03-01T18:47:36.619Z,22.00
2023-03-01T18:49:38.423Z,18.33
2023-03-01T18:51:41.088Z,18.33
2023-03-01T18:53:42.868Z,22.33
2023-03-01T18:55:45.923Z,28.00
2023-03-01T18:57:47.515Z,17.67
2023-03-01T18:59:49.181Z,22.00
2023-03-01T19:01:50.771Z,15.33
2023-03-01T19:03:53.110Z,18.67
2023-03-01T19:05:54.777Z,13.00
2023-03-01T19:07:56.355Z,44.33
2023-03-01T19:09:57.971Z,28.67
2023-03-01T19:12:00.951Z,23.33
2023-03-01T19:14:03.616Z,28.67
2023-03-01T19:16:07.520Z,34.67
2023-03-01T19:18:09.379Z,25.67
2023-03-01T19:20:12.713Z,24.33
2023-03-01T19:22:14.249Z,28.33
2023-03-01T19:24:16.145Z,21.33
2023-03-01T19:26:20.303Z,18.33
2023-03-01T19:28:23.397Z,20.00
2023-03-01T19:30:25.319Z,30.67
2023-03-01T19:32:27.259Z,28.33
2023-03-01T19:34:28.933Z,33.00
2023-03-01T19:36:31.133Z,26.00
2023-03-01T19:38:33.168Z,30.00
2023-03-01T19:40:36.300Z,26.67
2023-03-01T19:42:37.918Z,23.33
2023-03-01T19:44:41.045Z,42.00
2023-03-01T19:46:42.676Z,23.00
2023-03-01T19:48:44.688Z,42.67
2023-03-01T19:50:46.763Z,26.00
2023-03-01T19:52:48.336Z,27.00
2023-03-01T19:54:51.944Z,22.33
2023-03-01T19:56:55.280Z,26.00
2023-03-01T19:58:57.053Z,26.33
2023-03-01T20:01:00.465Z,27.33
2023-03-01T20:03:02.521Z,20.33
2023-03-01T20:05:04.426Z,23.00
2023-03-01T20:07:05.974Z,18.33
2023-03-01T20:09:19.362Z,24.67
2023-03-01T20:11:22.806Z,20.00
2023-03-01T20:13:24.461Z,15.33
2023-03-01T20:15:26.554Z,19.67
2023-03-01T20:17:29.876Z,21.33
2023-03-01T20:19:32.621Z,20.33
2023-03-01T20:21:34.164Z,18.00
2023-03-01T20:23:36.154Z,25.33
2023-03-01T20:25:37.960Z,34.33
2023-03-01T20:27:39.614Z,29.33
2023-03-01T20:29:41.190Z,26.67
2023-03-01T20:31:42.887Z,26.00
2023-03-01T20:33:45.922Z,27.00
2023-03-01T20:35:47.466Z,32.67
2023-03-01T20:37:51.978Z,23.67
2023-03-01T20:39:55.087Z,9.00
2023-03-01T20:41:56.919Z,23.67
2023-03-01T20:43:58.676Z,21.67
2023-03-01T20:46:04.466Z,16.00
2023-03-01T20:48:06.528Z,17.67
2023-03-01T20:50:11.212Z,29.67
2023-03-01T20:52:12.734Z,20.33
2023-03-01T20:54:14.394Z,14.67
2023-03-01T20:56:17.965Z,14.67
2023-03-01T20:58:19.860Z,20.33
2023-03-01T21:00:21.651Z,18.00
2023-03-01T21:02:23.455Z,23.67
2023-03-01T21:04:24.976Z,24.33
2023-03-01T21:06:28.884Z,25.33
2023-03-01T21:08:30.828Z,25.67
2023-03-01T21:10:33.388Z,18.00
2023-03-01T21:12:34.942Z,22.00
2023-03-01T21:14:37.042Z,21.67
2023-03-01T21:16:39.019Z,25.00
2023-03-01T21:18:41.125Z,13.33
2023-03-01T21:20:42.819Z,14.33
2023-03-01T21:22:45.821Z,15.00
2023-03-01T21:24:48.825Z,21.67
2023-03-01T21:26:51.269Z,21.00
2023-03-01T21:28:56.212Z,21.00
2023-03-01T21:31:03.468Z,21.33
2023-03-01T21:33:05.057Z,26.00
2023-03-01T21:35:07.597Z,24.00
2023-03-01T21:37:09.560Z,16.33
2023-03-01T21:39:12.577Z,15.33
2023-03-01T21:41:15.617Z,23.00
2023-03-01T21:43:17.421Z,17.67
2023-03-01T21:45:19.040Z,17.00
2023-03-01T21:47:23.054Z,12.00
2023-03-01T21:49:25.794Z,18.00
2023-03-01T21:51:28.090Z,15.33
2023-03-01T21:53:32.008Z,13.33
2023-03-01T21:55:35.220Z,17.33
2023-03-01T21:57:37.081Z,20.67
2023-03-01T21:59:38.977Z,7.33
2023-03-01T22:01:41.124Z,16.00
2023-03-01T22:03:43.528Z,14.00
2023-03-01T22:05:54.396Z,14.00
2023-03-01T22:07:56.095Z,19.00
2023-03-01T22:09:57.780Z,17.67
2023-03-01T22:12:01.350Z,12.00
2023-03-01T22:14:03.629Z,19.33
2023-03-01T22:16:06.398Z,15.67
2023-03-01T22:18:09.159Z,9.67
2023-03-01T22:20:11.884Z,17.00
2023-03-01T22:22:13.368Z,20.00
2023-03-01T22:24:15.727Z,19.67
2023-03-01T22:26:23.565Z,20.00
2023-03-01T22:28:26.519Z,11.67
2023-03-01T22:30:28.040Z,16.00
2023-03-01T22:32:29.762Z,20.67
2023-03-01T22:34:31.647Z,24.00
2023-03-01T22:36:34.241Z,14.00
2023-03-01T22:38:35.942Z,13.33
2023-03-01T22:40:39.120Z,13.33
2023-03-01T22:42:41.321Z,6.67
2023-03-01T22:44:44.454Z,20.00
2023-03-01T22:46:46.497Z,12.00
2023-03-01T22:48:48.925Z,9.33
2023-03-01T22:50:51.316Z,15.33
2023-03-01T22:52:52.945Z,15.00
2023-03-01T22:54:55.086Z,7.67
2023-03-01T22:56:56.652Z,11.00
2023-03-01T22:58:59.703Z,12.00
2023-03-01T23:01:08.490Z,7.67
2023-03-01T23:03:10.554Z,8.67
2023-03-01T23:05:12.692Z,15.00
2023-03-01T23:07:14.428Z,12.33
2023-03-01T23:09:17.640Z,10.00
2023-03-01T23:11:21.020Z,12.00
2023-03-01T23:13:22.862Z,12.33
2023-03-01T23:15:24.444Z,16.67
2023-03-01T23:17:27.513Z,7.33
2023-03-01T23:19:29.750Z,14.67
2023-03-01T23:21:31.569Z,16.33
2023-03-01T23:23:33.467Z,7.33
2023-03-01T23:25:35.064Z,14.67
2023-03-01T23:27:37.216Z,14.33
2023-03-01T23:29:39.050Z,8.67
2023-03-01T23:31:42.833Z,10.33
2023-03-01T23:33:47.086Z,8.67
2023-03-01T23:35:48.661Z,12.33
2023-03-01T23:37:50.560Z,12.00
2023-03-01T23:39:52.058Z,9.00
2023-03-01T23:41:53.871Z,12.00
2023-03-01T23:43:57.217Z,10.33
2023-03-01T23:45:58.885Z,7.00
2023-03-01T23:48:01.035Z,5.33
2023-03-01T23:50:04.840Z,10.67
2023-03-01T23:52:06.838Z,12.00
2023-03-01T23:54:09.790Z,8.33
2023-03-01T23:56:13.515Z,10.33
2023-03-01T23:58:15.633Z,12.00
